createdAt,value
2019-01-12T00:01:52.067Z,0.80
2019-01-12T00:04:21.613Z,0.80
2019-01-12T00:06:51.066Z,0.80
2019-01-12T00:09:20.537Z,0.80
2019-01-12T00:11:50.034Z,0.90
2019-01-12T00:14:19.540Z,0.90
2019-01-12T00:16:49.019Z,0.90
2019-01-12T00:19:18.535Z,0.90
2019-01-12T00:21:48.020Z,0.90
2019-01-12T00:24:17.499Z,0.80
2019-01-12T00:26:46.980Z,0.80
2019-01-12T00:29:16.553Z,0.80
2019-01-12T00:31:46.053Z,0.80
2019-01-12T00:34:15.668Z,0.80
2019-01-12T00:36:45.155Z,0.80
2019-01-12T00:39:14.634Z,0.80
2019-01-12T00:41:44.120Z,0.80
2019-01-12T00:44:13.607Z,0.80
2019-01-12T00:46:43.095Z,0.80
2019-01-12T00:49:12.594Z,0.80
2019-01-12T00:51:42.076Z,0.80
2019-01-12T00:54:11.568Z,0.70
2019-01-12T00:56:41.073Z,0.70
2019-01-12T00:59:12.356Z,0.70
2019-01-12T01:01:41.826Z,0.70
2019-01-12T01:04:11.299Z,0.70
2019-01-12T01:06:40.799Z,0.70
2019-01-12T01:09:10.258Z,0.70
2019-01-12T01:11:39.760Z,0.70
2019-01-12T01:14:09.271Z,0.70
2019-01-12T01:16:38.757Z,0.70
2019-01-12T01:19:08.268Z,0.70
2019-01-12T01:21:37.736Z,0.70
2019-01-12T01:24:07.193Z,0.70
2019-01-12T01:26:36.689Z,0.70
2019-01-12T01:29:06.164Z,0.80
2019-01-12T01:31:35.896Z,0.80
2019-01-12T01:34:05.420Z,0.80
2019-01-12T01:36:34.909Z,0.80
2019-01-12T01:39:05.943Z,0.80
2019-01-12T01:41:35.411Z,0.80
2019-01-12T01:44:04.968Z,0.80
2019-01-12T01:46:34.421Z,0.80
2019-01-12T01:49:03.917Z,0.80
2019-01-12T01:51:33.423Z,0.80
2019-01-12T01:54:02.903Z,0.70
2019-01-12T01:56:32.415Z,0.60
2019-01-12T01:59:01.987Z,0.50
2019-01-12T02:01:31.459Z,0.50
2019-01-12T02:04:01.102Z,0.50
2019-01-12T02:06:30.701Z,0.40
2019-01-12T02:09:00.169Z,0.40
2019-01-12T02:11:29.667Z,0.30
2019-01-12T02:13:59.156Z,0.30
2019-01-12T02:16:28.627Z,0.30
2019-01-12T02:18:58.124Z,0.30
2019-01-12T02:21:27.590Z,0.20
2019-01-12T02:23:57.081Z,0.10
2019-01-12T02:26:26.592Z,0.10
2019-01-12T02:28:56.088Z,0.10
2019-01-12T02:31:25.697Z,0.00
2019-01-12T02:34:14.559Z,0.00
2019-01-12T02:37:03.395Z,0.00
2019-01-12T02:39:32.909Z,-0.10
2019-01-12T02:42:02.379Z,0.00
2019-01-12T02:44:31.896Z,-0.10
2019-01-12T02:47:01.436Z,-0.20
2019-01-12T02:49:30.922Z,-0.20
2019-01-12T02:52:00.414Z,-0.20
2019-01-12T02:54:29.913Z,-0.20
2019-01-12T02:56:59.393Z,-0.20
2019-01-12T02:59:28.861Z,-0.20
2019-01-12T03:01:58.371Z,-0.20
2019-01-12T03:04:27.968Z,-0.10
2019-01-12T03:06:57.429Z,-0.20
2019-01-12T03:09:26.934Z,-0.20
2019-01-12T03:11:56.412Z,-0.20
2019-01-12T03:14:25.906Z,-0.20
2019-01-12T03:16:55.447Z,-0.20
2019-01-12T03:19:24.925Z,-0.20
2019-01-12T03:21:54.514Z,-0.20
2019-01-12T03:24:24.031Z,-0.20
2019-01-12T03:26:53.613Z,-0.20
2019-01-12T03:29:23.083Z,-0.10
2019-01-12T03:31:52.584Z,-0.20
2019-01-12T03:34:22.359Z,-0.20
2019-01-12T03:36:51.841Z,-0.30
2019-01-12T03:39:21.347Z,-0.30
2019-01-12T03:41:50.918Z,-0.30
2019-01-12T03:44:20.435Z,-0.30
2019-01-12T03:46:49.901Z,-0.30
2019-01-12T03:49:19.386Z,-0.40
2019-01-12T03:51:48.916Z,-0.40
2019-01-12T03:54:18.385Z,-0.40
2019-01-12T03:56:47.873Z,-0.40
2019-01-12T03:59:17.391Z,-0.40
2019-01-12T04:01:46.788Z,-0.40
2019-01-12T04:04:16.310Z,-0.40
2019-01-12T04:06:45.817Z,-0.40
2019-01-12T04:09:15.301Z,-0.40
2019-01-12T04:11:44.778Z,-0.40
2019-01-12T04:14:14.278Z,-0.30
2019-01-12T04:16:43.750Z,-0.30
2019-01-12T04:19:13.219Z,-0.30
2019-01-12T04:21:42.732Z,-0.30
2019-01-12T04:24:12.200Z,-0.30
2019-01-12T04:26:41.725Z,-0.30
2019-01-12T04:29:11.208Z,-0.20
2019-01-12T04:31:40.677Z,-0.20
2019-01-12T04:34:10.176Z,-0.20
2019-01-12T04:36:39.662Z,-0.30
2019-01-12T04:39:09.147Z,-0.30
2019-01-12T04:41:38.680Z,-0.40
2019-01-12T04:44:08.161Z,-0.40
2019-01-12T04:46:37.633Z,-0.40
2019-01-12T04:49:07.237Z,-0.50
2019-01-12T04:51:36.766Z,-0.50
2019-01-12T04:54:06.187Z,-0.40
2019-01-12T04:56:35.691Z,-0.40
2019-01-12T04:59:05.190Z,-0.50
2019-01-12T05:01:34.701Z,-0.50
2019-01-12T05:04:04.187Z,-0.50
2019-01-12T05:06:33.691Z,-0.50
2019-01-12T05:09:04.558Z,-0.60
2019-01-12T05:11:34.071Z,-0.60
2019-01-12T05:14:03.546Z,-0.70
2019-01-12T05:16:33.064Z,-0.70
2019-01-12T05:19:02.549Z,-0.60
2019-01-12T05:21:32.134Z,-0.60
2019-01-12T05:24:01.647Z,-0.70
2019-01-12T05:26:31.233Z,-0.70
2019-01-12T05:29:00.717Z,-0.70
2019-01-12T05:31:30.330Z,-0.70
2019-01-12T05:34:00.150Z,-0.70
2019-01-12T05:36:29.628Z,-0.80
2019-01-12T05:38:59.143Z,-0.80
2019-01-12T05:41:28.618Z,-0.80
2019-01-12T05:43:58.094Z,-0.80
2019-01-12T05:46:27.643Z,-0.80
2019-01-12T05:48:57.457Z,-0.80
2019-01-12T05:51:45.960Z,-0.80
2019-01-12T05:54:15.438Z,-0.90
2019-01-12T05:59:33.346Z,-0.80
2019-01-12T06:02:02.835Z,-0.80
2019-01-12T06:04:32.300Z,-0.80
2019-01-12T06:07:01.836Z,-0.80
2019-01-12T06:09:31.331Z,-0.80
2019-01-12T06:12:00.801Z,-0.80
2019-01-12T06:14:30.406Z,-0.90
2019-01-12T06:16:59.899Z,-0.90
2019-01-12T06:19:29.368Z,-0.90
2019-01-12T06:21:58.873Z,-1.00
2019-01-12T06:24:28.362Z,-1.00
2019-01-12T06:26:57.855Z,-1.00
2019-01-12T06:29:27.483Z,-1.00
2019-01-12T06:31:56.982Z,-1.00
2019-01-12T06:34:26.476Z,-1.00
2019-01-12T06:36:55.998Z,-1.00
2019-01-12T06:39:25.478Z,-1.10
2019-01-12T06:41:54.999Z,-1.10
2019-01-12T06:44:24.544Z,-1.10
2019-01-12T06:46:54.111Z,-1.10
2019-01-12T06:49:23.614Z,-0.80
2019-01-12T06:52:12.477Z,-0.60
2019-01-12T06:54:41.946Z,-0.60
2019-01-12T06:57:11.461Z,-0.70
2019-01-12T06:59:40.976Z,-0.70
2019-01-12T07:02:10.461Z,-0.80
2019-01-12T07:04:39.949Z,-0.80
2019-01-12T07:07:09.473Z,-0.80
2019-01-12T07:09:39.060Z,-0.70
2019-01-12T07:12:08.539Z,-0.70
2019-01-12T07:14:38.141Z,-0.60
2019-01-12T07:17:07.620Z,-0.60
2019-01-12T07:19:37.103Z,-0.60
2019-01-12T07:22:06.609Z,-0.50
2019-01-12T07:24:36.083Z,-0.40
2019-01-12T07:27:05.566Z,-0.40
2019-01-12T07:29:35.068Z,-0.40
2019-01-12T07:32:04.546Z,-0.30
2019-01-12T07:34:34.020Z,-0.30
2019-01-12T07:37:03.531Z,-0.10
2019-01-12T07:39:33.014Z,-0.20
2019-01-12T07:42:02.506Z,-0.10
2019-01-12T07:44:32.002Z,-0.10
2019-01-12T07:47:01.448Z,0.00
2019-01-12T07:49:31.000Z,-0.10
2019-01-12T07:52:00.457Z,0.00
2019-01-12T07:54:29.937Z,0.00
2019-01-12T07:56:59.483Z,0.10
2019-01-12T07:59:28.968Z,0.10
2019-01-12T08:01:58.440Z,0.20
2019-01-12T08:04:27.942Z,0.30
2019-01-12T08:06:57.421Z,0.30
2019-01-12T08:09:26.901Z,0.50
2019-01-12T08:11:56.367Z,0.50
2019-01-12T08:14:25.938Z,0.50
2019-01-12T08:16:55.426Z,0.60
2019-01-12T08:19:24.969Z,0.70
2019-01-12T08:21:54.483Z,0.80
2019-01-12T08:24:23.991Z,0.90
2019-01-12T08:26:53.471Z,1.00
2019-01-12T08:29:23.336Z,1.10
2019-01-12T08:31:52.839Z,1.20
2019-01-12T08:34:22.294Z,1.30
2019-01-12T08:36:51.809Z,1.40
2019-01-12T08:39:21.306Z,1.50
2019-01-12T08:41:50.777Z,1.60
2019-01-12T08:44:20.316Z,1.80
2019-01-12T08:46:49.746Z,1.80
2019-01-12T08:49:19.217Z,1.80
2019-01-12T08:51:48.723Z,1.90
2019-01-12T08:54:18.227Z,2.00
2019-01-12T08:56:47.743Z,2.20
2019-01-12T08:59:17.193Z,2.30
2019-01-12T09:01:46.658Z,2.40
2019-01-12T09:04:16.134Z,2.50
2019-01-12T09:06:45.646Z,2.60
2019-01-12T09:09:15.094Z,2.80
2019-01-12T09:11:44.568Z,2.90
2019-01-12T09:14:14.063Z,3.10
2019-01-12T09:16:43.533Z,3.40
2019-01-12T09:19:13.000Z,3.50
2019-01-12T09:21:42.487Z,3.70
2019-01-12T09:24:11.961Z,3.90
2019-01-12T09:26:44.969Z,4.10
2019-01-12T09:29:12.636Z,4.30
2019-01-12T09:31:42.116Z,4.60
2019-01-12T09:34:11.586Z,4.70
2019-01-12T09:36:41.110Z,4.90
2019-01-12T09:39:10.584Z,5.20
2019-01-12T09:41:40.039Z,5.30
2019-01-12T09:44:09.590Z,5.30
2019-01-12T09:46:39.065Z,5.50
2019-01-12T09:49:08.464Z,5.70
2019-01-12T09:51:37.905Z,5.80
2019-01-12T09:54:26.720Z,6.00
2019-01-12T09:56:56.248Z,6.20
2019-01-12T09:59:27.050Z,6.10
2019-01-12T10:01:56.787Z,6.30
2019-01-12T10:04:45.689Z,6.50
2019-01-12T10:07:15.165Z,6.80
2019-01-12T10:09:44.651Z,6.90
2019-01-12T10:12:14.152Z,7.00
2019-01-12T10:14:43.614Z,6.90
2019-01-12T10:17:13.105Z,7.10
2019-01-12T10:19:42.602Z,7.20
2019-01-12T10:22:12.078Z,7.40
2019-01-12T10:24:41.553Z,7.60
2019-01-12T10:27:11.085Z,7.70
2019-01-12T10:29:40.555Z,7.50
2019-01-12T10:32:10.025Z,7.20
2019-01-12T10:34:39.565Z,7.60
2019-01-12T10:37:09.103Z,8.10
2019-01-12T10:39:38.558Z,8.40
2019-01-12T10:42:08.124Z,9.20
2019-01-12T10:44:37.647Z,9.70
2019-01-12T10:47:07.159Z,10.60
2019-01-12T10:49:36.663Z,11.30
2019-01-12T10:52:06.154Z,12.00
2019-01-12T10:54:35.632Z,12.80
2019-01-12T10:57:05.650Z,14.80
2019-01-12T10:59:35.390Z,17.00
2019-01-12T11:02:05.166Z,19.20
2019-01-12T11:04:34.691Z,20.20
2019-01-12T11:07:04.510Z,21.50
2019-01-12T11:09:34.068Z,22.50
2019-01-12T11:12:03.560Z,23.30
2019-01-12T11:14:33.087Z,21.60
2019-01-12T11:17:02.560Z,19.10
2019-01-12T11:19:32.057Z,16.70
2019-01-12T11:22:01.528Z,16.40
2019-01-12T11:24:31.056Z,17.50
2019-01-12T11:27:00.535Z,17.40
2019-01-12T11:29:30.012Z,16.60
2019-01-12T11:31:59.549Z,15.20
2019-01-12T11:34:29.018Z,14.40
2019-01-12T11:36:58.494Z,13.60
2019-01-12T11:39:27.987Z,13.50
2019-01-12T11:41:57.454Z,13.20
2019-01-12T11:44:26.934Z,12.70
2019-01-12T11:46:56.461Z,13.50
2019-01-12T11:49:25.921Z,15.00
2019-01-12T11:51:55.382Z,16.00
2019-01-12T11:54:24.934Z,16.00
2019-01-12T11:56:54.430Z,14.90
2019-01-12T11:59:23.944Z,13.70
2019-01-12T12:01:53.453Z,12.40
2019-01-12T12:04:23.169Z,11.60
2019-01-12T12:06:52.643Z,11.00
2019-01-12T12:09:22.142Z,10.60
2019-01-12T12:11:51.785Z,9.90
2019-01-12T12:14:21.205Z,9.70
2019-01-12T12:16:50.714Z,9.30
2019-01-12T12:19:20.183Z,9.10
2019-01-12T12:21:49.881Z,9.00
2019-01-12T12:24:19.376Z,8.80
2019-01-12T12:26:48.895Z,8.60
2019-01-12T12:29:18.490Z,8.50
2019-01-12T12:31:47.980Z,8.40
2019-01-12T12:34:17.444Z,8.20
2019-01-12T12:36:46.911Z,8.30
2019-01-12T12:39:16.521Z,8.10
2019-01-12T12:41:45.901Z,8.00
2019-01-12T12:44:15.373Z,8.00
2019-01-12T12:46:44.870Z,8.40
2019-01-12T12:49:14.339Z,8.40
2019-01-12T12:51:43.806Z,8.50
2019-01-12T12:54:13.550Z,8.70
2019-01-12T12:56:43.014Z,8.80
2019-01-12T12:59:12.481Z,9.00
2019-01-12T13:01:41.982Z,9.10
2019-01-12T13:04:11.442Z,8.90
2019-01-12T13:06:40.904Z,9.00
2019-01-12T13:09:10.403Z,8.90
2019-01-12T13:11:39.857Z,8.70
2019-01-12T13:14:09.338Z,8.90
2019-01-12T13:16:38.841Z,9.20
2019-01-12T13:19:08.352Z,10.00
2019-01-12T13:21:37.814Z,11.00
2019-01-12T13:24:07.318Z,11.80
2019-01-12T13:26:36.818Z,12.00
2019-01-12T13:29:06.290Z,12.30
2019-01-12T13:31:35.869Z,12.10
2019-01-12T13:34:05.343Z,11.70
2019-01-12T13:36:34.815Z,11.30
2019-01-12T13:39:06.515Z,11.00
2019-01-12T13:41:35.989Z,10.70
2019-01-12T13:44:05.512Z,10.30
2019-01-12T13:46:35.020Z,9.90
2019-01-12T13:49:04.456Z,9.50
2019-01-12T13:51:34.845Z,9.30
2019-01-12T13:54:04.405Z,9.20
2019-01-12T13:56:33.865Z,9.40
2019-01-12T13:59:03.339Z,9.60
2019-01-12T14:01:32.876Z,10.00
2019-01-12T14:04:02.352Z,10.90
2019-01-12T14:06:31.864Z,11.80
2019-01-12T14:09:01.364Z,12.70
2019-01-12T14:11:30.907Z,12.90
2019-01-12T14:14:00.494Z,12.60
2019-01-12T14:16:30.000Z,12.20
2019-01-12T14:18:59.475Z,12.20
2019-01-12T14:21:28.947Z,13.00
2019-01-12T14:23:58.444Z,13.20
2019-01-12T14:26:27.939Z,12.70
2019-01-12T14:28:57.412Z,11.90
2019-01-12T14:31:26.914Z,11.30
2019-01-12T14:33:56.401Z,10.50
2019-01-12T14:36:25.877Z,9.70
2019-01-12T14:38:55.563Z,9.10
2019-01-12T14:41:25.006Z,8.90
2019-01-12T14:43:54.781Z,8.60
2019-01-12T14:46:24.251Z,8.40
2019-01-12T14:48:53.765Z,8.20
2019-01-12T14:51:23.251Z,7.90
2019-01-12T14:53:52.700Z,7.70
2019-01-12T14:56:22.208Z,7.50
2019-01-12T14:58:51.675Z,7.30
2019-01-12T15:01:21.168Z,7.20
2019-01-12T15:03:50.659Z,7.10
2019-01-12T15:06:20.167Z,6.90
2019-01-12T15:08:49.624Z,6.70
2019-01-12T15:11:19.135Z,6.50
2019-01-12T15:13:48.604Z,6.40
2019-01-12T15:16:18.153Z,6.30
2019-01-12T15:18:47.679Z,6.20
2019-01-12T15:21:17.115Z,6.00
2019-01-12T15:23:46.608Z,5.90
2019-01-12T15:26:16.128Z,5.80
2019-01-12T15:28:45.645Z,5.80
2019-01-12T15:31:15.179Z,5.80
2019-01-12T15:33:44.691Z,5.70
2019-01-12T15:36:14.167Z,5.60
2019-01-12T15:38:43.769Z,5.60
2019-01-12T15:41:13.262Z,5.50
2019-01-12T15:43:42.759Z,5.50
2019-01-12T15:46:12.229Z,5.50
2019-01-12T15:48:41.706Z,5.40
2019-01-12T15:51:11.208Z,5.40
2019-01-12T15:53:40.664Z,5.40
2019-01-12T15:56:10.141Z,5.30
2019-01-12T15:58:39.691Z,5.30
2019-01-12T16:01:09.189Z,5.20
2019-01-12T16:03:38.662Z,5.10
2019-01-12T16:06:08.178Z,5.00
2019-01-12T16:08:37.665Z,4.90
2019-01-12T16:11:07.337Z,4.90
2019-01-12T16:13:36.878Z,4.80
2019-01-12T16:16:06.399Z,4.70
2019-01-12T16:18:35.936Z,4.60
2019-01-12T16:21:05.612Z,4.60
2019-01-12T16:23:35.104Z,4.50
2019-01-12T16:26:04.679Z,4.50
2019-01-12T16:28:34.255Z,4.40
2019-01-12T16:31:03.799Z,4.40
2019-01-12T16:33:33.322Z,4.40
2019-01-12T16:36:02.832Z,4.40
2019-01-12T16:38:32.374Z,4.50
2019-01-12T16:41:01.867Z,4.60
2019-01-12T16:43:31.363Z,4.50
2019-01-12T16:46:00.844Z,4.50
2019-01-12T16:48:30.347Z,4.40
2019-01-12T16:50:59.812Z,4.40
2019-01-12T16:53:29.396Z,4.30
2019-01-12T16:55:58.890Z,4.30
2019-01-12T16:58:30.705Z,4.20
2019-01-12T17:00:59.552Z,4.20
2019-01-12T17:03:29.082Z,4.20
2019-01-12T17:05:58.856Z,4.10
2019-01-12T17:08:28.325Z,4.10
2019-01-12T17:10:57.829Z,4.10
2019-01-12T17:13:27.415Z,4.00
2019-01-12T17:15:56.997Z,4.00
2019-01-12T17:18:26.490Z,4.10
2019-01-12T17:20:55.977Z,4.00
2019-01-12T17:23:25.448Z,3.90
2019-01-12T17:25:54.938Z,3.90
2019-01-12T17:28:24.449Z,3.90
2019-01-12T17:30:53.931Z,3.90
2019-01-12T17:33:23.429Z,3.90
2019-01-12T17:35:52.903Z,3.90
2019-01-12T17:38:22.366Z,3.80
2019-01-12T17:40:51.880Z,3.70
2019-01-12T17:43:21.358Z,3.70
2019-01-12T17:46:10.222Z,3.70
2019-01-12T17:48:39.689Z,3.70
2019-01-12T17:51:09.189Z,3.60
2019-01-12T17:53:38.798Z,3.50
2019-01-12T17:56:08.278Z,3.50
2019-01-12T17:58:44.216Z,3.40
2019-01-12T18:01:08.998Z,3.30
2019-01-12T18:03:38.476Z,3.20
2019-01-12T18:06:07.992Z,3.20
2019-01-12T18:08:37.870Z,3.20
2019-01-12T18:11:08.089Z,3.20
2019-01-12T18:13:37.593Z,3.10
2019-01-12T18:16:07.269Z,3.10
2019-01-12T18:18:36.821Z,3.10
2019-01-12T18:21:06.314Z,3.10
2019-01-12T18:23:36.109Z,3.00
2019-01-12T18:26:06.070Z,3.10
2019-01-12T18:28:35.692Z,3.10
2019-01-12T18:31:05.239Z,3.00
2019-01-12T18:33:34.722Z,2.90
2019-01-12T18:36:04.338Z,2.90
2019-01-12T18:38:33.825Z,2.90
2019-01-12T18:41:03.399Z,3.00
2019-01-12T18:43:32.994Z,2.90
2019-01-12T18:46:02.472Z,2.90
2019-01-12T18:48:31.957Z,3.00
2019-01-12T18:51:01.999Z,2.90
2019-01-12T18:53:31.630Z,2.90
2019-01-12T18:56:01.115Z,2.80
2019-01-12T18:58:30.614Z,2.90
2019-01-12T19:01:00.099Z,2.80
2019-01-12T19:03:29.572Z,2.90
2019-01-12T19:05:59.087Z,2.80
2019-01-12T19:08:28.575Z,2.80
2019-01-12T19:10:58.151Z,3.00
2019-01-12T19:13:27.685Z,2.90
2019-01-12T19:15:57.145Z,2.80
2019-01-12T19:18:26.661Z,2.80
2019-01-12T19:20:56.235Z,2.70
2019-01-12T19:23:25.717Z,2.70
2019-01-12T19:25:55.236Z,2.70
2019-01-12T19:28:25.049Z,2.60
2019-01-12T19:30:54.596Z,2.60
2019-01-12T19:33:24.109Z,2.60
2019-01-12T19:35:53.567Z,2.60
2019-01-12T19:38:23.046Z,2.50
2019-01-12T19:40:52.551Z,2.50
2019-01-12T19:43:22.019Z,2.50
2019-01-12T19:45:51.506Z,2.50
2019-01-12T19:48:21.021Z,2.50
2019-01-12T19:50:50.601Z,2.40
2019-01-12T19:53:20.479Z,2.40
2019-01-12T19:55:50.172Z,2.40
2019-01-12T19:58:19.628Z,2.30
2019-01-12T20:00:49.112Z,2.40
2019-01-12T20:03:18.614Z,2.30
2019-01-12T20:05:48.086Z,2.30
2019-01-12T20:08:17.565Z,2.20
2019-01-12T20:10:47.094Z,2.30
2019-01-12T20:13:16.607Z,2.20
2019-01-12T20:15:46.081Z,2.20
2019-01-12T20:18:15.608Z,2.40
2019-01-12T20:20:45.087Z,2.30
2019-01-12T20:23:14.558Z,2.30
2019-01-12T20:25:44.116Z,2.30
2019-01-12T20:28:13.611Z,2.30
2019-01-12T20:30:53.740Z,2.30
2019-01-12T20:33:45.836Z,2.30
2019-01-12T20:36:49.752Z,2.20
2019-01-12T20:39:44.790Z,2.20
2019-01-12T20:42:33.892Z,2.30
2019-01-12T20:45:27.732Z,2.20
2019-01-12T20:48:10.798Z,2.20
2019-01-12T20:51:02.793Z,2.20
2019-01-12T20:54:03.597Z,2.20
2019-01-12T20:57:00.107Z,2.20
2019-01-12T20:59:37.248Z,2.20
2019-01-12T21:02:16.832Z,2.10
2019-01-12T21:04:53.601Z,2.20
2019-01-12T21:07:48.715Z,2.20
2019-01-12T21:10:43.355Z,2.20
2019-01-12T21:13:46.243Z,2.20
2019-01-12T21:16:20.615Z,2.10
2019-01-12T21:18:50.089Z,2.20
2019-01-12T21:21:19.580Z,2.20
2019-01-12T21:23:49.139Z,2.20
2019-01-12T21:26:18.612Z,2.30
2019-01-12T21:28:48.160Z,2.20
2019-01-12T21:31:17.657Z,2.20
2019-01-12T21:33:47.125Z,2.20
2019-01-12T21:36:16.607Z,2.30
2019-01-12T21:38:46.115Z,2.30
2019-01-12T21:41:15.604Z,2.30
2019-01-12T21:43:45.076Z,2.30
2019-01-12T21:46:14.584Z,2.30
2019-01-12T21:48:44.147Z,2.30
2019-01-12T21:51:13.629Z,2.30
2019-01-12T21:53:43.233Z,2.30
2019-01-12T21:56:12.712Z,2.30
2019-01-12T21:58:42.195Z,2.30
2019-01-12T22:01:12.086Z,2.40
2019-01-12T22:03:41.557Z,2.40
2019-01-12T22:06:11.042Z,2.40
2019-01-12T22:08:40.534Z,2.40
2019-01-12T22:11:10.013Z,2.40
2019-01-12T22:13:39.741Z,2.40
2019-01-12T22:16:09.245Z,2.40
2019-01-12T22:18:38.750Z,2.40
2019-01-12T22:21:08.358Z,2.40
2019-01-12T22:23:37.869Z,2.40
2019-01-12T22:26:07.358Z,2.40
2019-01-12T22:28:36.831Z,2.40
2019-01-12T22:31:06.343Z,2.40
2019-01-12T22:33:35.855Z,2.40
2019-01-12T22:36:05.369Z,2.40
2019-01-12T22:38:34.884Z,2.40
2019-01-12T22:41:04.369Z,2.40
2019-01-12T22:43:33.840Z,2.30
2019-01-12T22:46:03.347Z,2.30
2019-01-12T22:48:32.833Z,2.30
2019-01-12T22:51:02.297Z,2.20
2019-01-12T22:53:31.900Z,2.20
2019-01-12T22:56:01.405Z,2.20
2019-01-12T22:58:30.911Z,2.20
2019-01-12T23:01:05.442Z,2.20
2019-01-12T23:03:34.949Z,2.20
2019-01-12T23:06:04.418Z,2.10
2019-01-12T23:08:33.919Z,2.10
2019-01-12T23:11:03.394Z,2.10
2019-01-12T23:13:32.868Z,2.10
2019-01-12T23:16:02.391Z,2.10
2019-01-12T23:18:31.863Z,2.10
2019-01-12T23:21:01.333Z,2.10
2019-01-12T23:23:30.848Z,2.00
2019-01-12T23:26:00.322Z,1.90
2019-01-12T23:28:29.803Z,1.90
2019-01-12T23:30:59.312Z,1.90
2019-01-12T23:33:28.776Z,1.90
2019-01-12T23:35:58.243Z,1.90
2019-01-12T23:38:27.746Z,2.00
2019-01-12T23:40:57.325Z,1.90
2019-01-12T23:43:26.813Z,1.80
2019-01-12T23:45:56.321Z,1.80
2019-01-12T23:48:25.810Z,1.80
2019-01-12T23:50:55.275Z,1.70
2019-01-12T23:53:24.785Z,1.70
2019-01-12T23:55:54.376Z,1.70
2019-01-12T23:58:23.854Z,1.70
